Yuton, Illinois
Current Conditions -  °F | °C
As of 4:56 PM on Friday 31 Oct 2014 (Local Time) from KBMI Reporting Station
Broken Clouds Broken Clouds  
Wind Chill: 28°   Ceiling: 4500
Heat Index: 39°   Visibility: 10mi
Dew Point: 22°   Wind: 24mph
Humidity: 51%   Direction: 360°N
Pressure: 30.28"   Gusts: 36mph
Location:  40.4766°N, 88.992°W
Report Text: KBMI 312156Z 36021G31KT 10SM BKN045 04/M06 A3028 RMK AO2 T00381055 BKN V SCT PK WND 35033/2103 SLP262
Loading
Personal Weather Stations






























Interactive Weather Map
Tropical Storm Tracking
New forecast layout! Learn more

10-Day Weather Forecast

Advertisements
Track Severe Weather on mobile